Cononcito, New Mexico
Current Conditions -  °F | °C
As of 8:35 AM on Thursday 23 Oct 2014 (Local Time) from KE80 Reporting Station
Clear Clear  
Wind Chill: 53°   Ceiling: Unl
Heat Index: 53°   Visibility: 10mi
Dew Point: 39°   Wind: 5mph
Humidity: 59%   Direction: 30°NNE
Pressure: 30.29"   Gusts: NA
Location:  34.9068°N, 107.279°W
Report Text: KE80 231435Z AUTO 03004KT 10SM CLR 12/04 A3029 RMK AO2 T01190040
Loading
Personal Weather Stations






























Interactive Weather Map
Tropical Storm Tracking
New forecast layout! Learn more

10-Day Weather Forecast

Advertisements
Track Severe Weather on mobile